Terminal Aerodrome Forecast
Issued by NWS

Home | Current Version | Previous Version | Text Only | Print | Product List | Glossary On
Versions: 1 2 3 4 5 6 7 8 9 10 11 12 13 14 15 16
000
FTAK31 PAJN 292322
TAFASI
TAF
PASI 292322Z 3000/3024 21007KT P6SM VCSH SCT025 BKN040 OVC060
     FM300500 VRB04KT P6SM BKN040
     FM301200 13007KT P6SM -SHRA SCT025 BKN040
     FM302200 13014KT P6SM VCSH OVC040 WS020/15030KT=

USA.gov is the U.S. government's official web portal to all federal, state and local government web resources and services.